createdAt,value
2023-04-13T00:01:01.691Z,33.59
2023-04-13T00:03:33.495Z,33.65
2023-04-13T00:06:03.124Z,33.58
2023-04-13T00:08:31.877Z,33.83
2023-04-13T00:11:00.043Z,33.65
2023-04-13T00:13:28.035Z,33.50
2023-04-13T00:15:57.057Z,33.79
2023-04-13T00:18:26.437Z,33.86
2023-04-13T00:20:54.435Z,33.71
2023-04-13T00:23:22.445Z,33.73
2023-04-13T00:25:51.264Z,33.61
2023-04-13T00:28:19.509Z,33.80
2023-04-13T00:30:47.556Z,33.69
2023-04-13T00:33:15.982Z,33.46
2023-04-13T00:35:45.643Z,33.49
2023-04-13T00:38:13.874Z,33.51
2023-04-13T00:40:41.807Z,33.66
2023-04-13T00:43:09.831Z,33.69
2023-04-13T00:45:39.182Z,33.22
2023-04-13T00:48:08.957Z,33.29
2023-04-13T00:50:36.982Z,33.48
2023-04-13T00:53:09.672Z,33.54
2023-04-13T00:55:39.561Z,33.27
2023-04-13T00:58:07.969Z,33.61
2023-04-13T01:00:39.229Z,33.20
2023-04-13T01:03:07.987Z,33.50
2023-04-13T01:05:38.321Z,33.40
2023-04-13T01:08:11.437Z,33.31
2023-04-13T01:10:40.929Z,33.64
2023-04-13T01:13:12.259Z,33.35
2023-04-13T01:15:46.311Z,33.19
2023-04-13T01:18:15.696Z,33.16
2023-04-13T01:20:46.496Z,33.40
2023-04-13T01:23:24.719Z,33.32
2023-04-13T01:25:58.027Z,33.71
2023-04-13T01:28:30.158Z,33.57
2023-04-13T01:30:58.731Z,33.31
2023-04-13T01:33:30.533Z,33.44
2023-04-13T01:36:00.771Z,33.24
2023-04-13T01:38:28.711Z,33.44
2023-04-13T01:40:57.321Z,33.36
2023-04-13T01:43:25.304Z,33.65
2023-04-13T01:46:00.940Z,33.39
2023-04-13T01:48:30.909Z,33.64
2023-04-13T01:50:59.978Z,33.41
2023-04-13T01:53:30.263Z,33.67
2023-04-13T01:55:58.332Z,33.35
2023-04-13T01:58:28.164Z,33.52
2023-04-13T02:00:57.816Z,33.73
2023-04-13T02:03:25.772Z,33.67
2023-04-13T02:05:53.693Z,33.26
2023-04-13T02:08:21.864Z,33.59
2023-04-13T02:10:50.195Z,33.56
2023-04-13T02:13:18.099Z,33.15
2023-04-13T02:15:46.244Z,33.56
2023-04-13T02:18:15.621Z,33.39
2023-04-13T02:20:46.134Z,33.61
2023-04-13T02:23:15.339Z,33.14
2023-04-13T02:25:47.596Z,33.05
2023-04-13T02:28:17.714Z,33.39
2023-04-13T02:30:46.154Z,33.28
2023-04-13T02:33:15.611Z,32.95
2023-04-13T02:35:43.769Z,33.28
2023-04-13T02:38:11.814Z,32.98
2023-04-13T02:40:39.856Z,32.93
2023-04-13T02:43:07.843Z,32.98
2023-04-13T02:45:35.782Z,32.88
2023-04-13T02:48:04.927Z,33.07
2023-04-13T02:50:34.300Z,32.78
2023-04-13T02:53:02.329Z,33.04
2023-04-13T02:55:30.276Z,32.66
2023-04-13T02:57:59.622Z,32.97
2023-04-13T03:00:28.727Z,33.00
2023-04-13T03:02:56.812Z,32.69
2023-04-13T03:05:25.120Z,32.47
2023-04-13T03:07:57.079Z,32.75
2023-04-13T03:10:25.117Z,32.91
2023-04-13T03:12:53.639Z,32.73
2023-04-13T03:15:21.924Z,32.81
2023-04-13T03:17:49.967Z,32.59
2023-04-13T03:20:20.962Z,32.88
2023-04-13T03:22:48.887Z,32.79
2023-04-13T03:25:18.336Z,32.57
2023-04-13T03:27:46.410Z,32.44
2023-04-13T03:30:14.704Z,32.54
2023-04-13T03:32:52.477Z,32.38
2023-04-13T03:35:20.571Z,32.63
2023-04-13T03:37:48.618Z,32.52
2023-04-13T03:40:17.977Z,32.29
2023-04-13T03:42:46.017Z,32.56
2023-04-13T03:45:13.918Z,32.36
2023-04-13T03:47:41.950Z,32.71
2023-04-13T03:50:10.911Z,32.57
2023-04-13T03:52:38.813Z,32.13
2023-04-13T03:55:07.182Z,32.32
2023-04-13T03:57:37.079Z,32.52
2023-04-13T04:00:07.334Z,32.13
2023-04-13T04:02:35.432Z,32.24
2023-04-13T04:05:03.640Z,32.15
2023-04-13T04:07:31.688Z,32.09
2023-04-13T04:10:12.268Z,32.21
2023-04-13T04:12:41.744Z,32.15
2023-04-13T04:15:10.480Z,32.25
2023-04-13T04:17:40.002Z,32.34
2023-04-13T04:20:10.327Z,32.26
2023-04-13T04:22:38.484Z,31.87
2023-04-13T04:25:07.247Z,32.08
2023-04-13T04:27:38.489Z,31.76
2023-04-13T04:30:10.881Z,32.27
2023-04-13T04:32:40.653Z,32.21
2023-04-13T04:35:09.855Z,32.04
2023-04-13T04:37:38.989Z,32.09
2023-04-13T04:40:09.650Z,32.03
2023-04-13T04:42:38.495Z,31.92
2023-04-13T04:45:10.568Z,32.00
2023-04-13T04:47:42.197Z,32.04
2023-04-13T04:50:11.206Z,32.02
2023-04-13T04:52:39.304Z,31.78
2023-04-13T04:55:13.421Z,31.80
2023-04-13T04:57:41.442Z,31.84
2023-04-13T05:00:15.537Z,32.05
2023-04-13T05:02:44.411Z,31.66
2023-04-13T05:05:12.915Z,31.82
2023-04-13T05:07:40.833Z,31.77
2023-04-13T05:10:10.243Z,31.79
2023-04-13T05:12:38.323Z,31.75
2023-04-13T05:15:07.739Z,31.79
2023-04-13T05:17:37.429Z,31.97
2023-04-13T05:20:06.958Z,31.47
2023-04-13T05:22:34.977Z,32.03
2023-04-13T05:25:02.987Z,31.81
2023-04-13T05:29:59.057Z,31.92
2023-04-13T05:32:27.131Z,31.80
2023-04-13T05:34:56.505Z,31.71
2023-04-13T05:37:24.489Z,31.59
2023-04-13T05:39:52.434Z,31.68
2023-04-13T05:42:20.571Z,31.48
2023-04-13T05:44:48.492Z,31.51
2023-04-13T05:47:17.090Z,31.23
2023-04-13T05:49:45.040Z,33.41
2023-04-13T05:52:14.273Z,32.46
2023-04-13T05:54:42.249Z,32.46
2023-04-13T05:57:10.215Z,32.29
2023-04-13T05:59:38.471Z,31.85
2023-04-13T06:02:06.506Z,32.27
2023-04-13T06:04:35.027Z,32.85
2023-04-13T06:07:03.214Z,32.45
2023-04-13T06:09:32.625Z,32.28
2023-04-13T06:12:00.637Z,32.37
2023-04-13T06:14:28.644Z,32.51
2023-04-13T06:16:56.688Z,32.57
2023-04-13T06:19:26.343Z,32.33
2023-04-13T06:21:56.324Z,32.72
2023-04-13T06:24:24.256Z,32.47
2023-04-13T06:26:53.622Z,32.41
2023-04-13T06:29:21.666Z,32.25
2023-04-13T06:31:49.540Z,32.31
2023-04-13T06:34:17.883Z,32.17
2023-04-13T06:36:45.829Z,32.55
2023-04-13T06:39:13.827Z,32.32
2023-04-13T06:41:41.767Z,32.17
2023-04-13T06:44:11.367Z,32.10
2023-04-13T06:46:39.408Z,32.50
2023-04-13T06:49:07.517Z,32.66
2023-04-13T06:51:35.511Z,32.40
2023-04-13T06:54:03.850Z,32.14
2023-04-13T06:56:31.886Z,32.13
2023-04-13T06:59:02.632Z,32.04
2023-04-13T07:01:32.611Z,32.26
2023-04-13T07:04:02.517Z,32.60
2023-04-13T07:06:32.244Z,32.36
2023-04-13T07:09:00.765Z,32.21
2023-04-13T07:11:28.894Z,32.59
2023-04-13T07:13:57.032Z,32.11
2023-04-13T07:16:25.059Z,32.79
2023-04-13T07:18:54.328Z,32.65
2023-04-13T07:21:22.510Z,32.77
2023-04-13T07:23:50.673Z,32.88
2023-04-13T07:26:18.654Z,32.55
2023-04-13T07:28:49.756Z,32.63
2023-04-13T07:31:17.686Z,33.15
2023-04-13T07:33:45.632Z,34.11
2023-04-13T07:36:14.999Z,34.84
2023-04-13T07:38:42.942Z,33.89
2023-04-13T07:41:10.929Z,34.06
2023-04-13T07:43:39.008Z,34.01
2023-04-13T07:46:11.901Z,34.06
2023-04-13T07:48:40.006Z,34.16
2023-04-13T07:51:08.940Z,33.66
2023-04-13T07:53:38.307Z,33.69
2023-04-13T07:56:07.121Z,33.68
2023-04-13T07:58:35.061Z,33.66
2023-04-13T08:01:03.404Z,33.49
2023-04-13T08:03:32.350Z,33.38
2023-04-13T08:06:00.345Z,33.30
2023-04-13T08:08:29.411Z,33.28
2023-04-13T08:10:58.726Z,33.36
2023-04-13T08:13:28.788Z,34.55
2023-04-13T08:15:57.286Z,34.27
2023-04-13T08:18:26.872Z,34.16
2023-04-13T08:20:55.242Z,34.29
2023-04-13T08:23:23.330Z,34.13
2023-04-13T08:26:18.505Z,33.76
2023-04-13T08:28:46.834Z,33.91
2023-04-13T08:31:14.762Z,33.84
2023-04-13T08:33:42.773Z,33.71
2023-04-13T08:36:11.015Z,33.63
2023-04-13T08:38:39.054Z,33.83
2023-04-13T08:41:07.163Z,33.44
2023-04-13T08:43:36.673Z,33.56
2023-04-13T08:46:05.028Z,33.71
2023-04-13T08:48:46.108Z,33.62
2023-04-13T08:51:20.686Z,33.60
2023-04-13T08:53:48.647Z,33.64
2023-04-13T08:56:16.808Z,33.88
2023-04-13T08:58:46.632Z,33.81
2023-04-13T09:01:15.596Z,34.58
2023-04-13T09:03:48.539Z,34.32
2023-04-13T09:06:16.589Z,34.27
2023-04-13T09:08:46.414Z,34.20
2023-04-13T09:11:14.722Z,34.31
2023-04-13T09:13:42.665Z,34.63
2023-04-13T09:16:12.051Z,34.61
2023-04-13T09:18:50.214Z,34.83
2023-04-13T09:21:18.657Z,34.33
2023-04-13T09:23:56.670Z,34.81
2023-04-13T09:26:24.640Z,34.51
2023-04-13T09:28:57.180Z,34.31
2023-04-13T09:31:26.956Z,34.45
2023-04-13T09:33:55.057Z,34.22
2023-04-13T09:36:24.218Z,34.66
2023-04-13T09:38:52.420Z,34.53
2023-04-13T09:41:29.891Z,34.43
2023-04-13T09:43:58.290Z,34.64
2023-04-13T09:46:27.893Z,34.26
2023-04-13T09:49:03.312Z,34.27
2023-04-13T09:51:41.435Z,34.58
2023-04-13T09:54:09.889Z,34.28
2023-04-13T09:56:45.289Z,34.42
2023-04-13T09:59:13.346Z,34.57
2023-04-13T10:01:42.852Z,34.12
2023-04-13T10:04:10.918Z,34.04
2023-04-13T10:06:40.127Z,33.52
2023-04-13T10:09:08.133Z,33.68
2023-04-13T10:11:38.814Z,33.32
2023-04-13T10:14:09.967Z,32.94
2023-04-13T10:16:46.582Z,33.34
2023-04-13T10:19:15.601Z,33.17
2023-04-13T10:21:45.346Z,33.62
2023-04-13T10:24:13.551Z,33.14
2023-04-13T10:26:42.270Z,33.23
2023-04-13T10:29:11.699Z,32.94
2023-04-13T10:31:39.943Z,33.07
2023-04-13T10:34:09.892Z,32.96
2023-04-13T10:36:41.868Z,33.05
2023-04-13T10:39:09.933Z,32.82
2023-04-13T10:41:38.014Z,33.33
2023-04-13T10:44:06.478Z,32.70
2023-04-13T10:46:35.140Z,32.94
2023-04-13T10:49:03.494Z,32.88
2023-04-13T10:51:42.475Z,32.59
2023-04-13T10:54:10.855Z,32.86
2023-04-13T10:56:38.825Z,32.92
2023-04-13T10:59:06.853Z,32.96
2023-04-13T11:01:35.962Z,32.99
2023-04-13T11:04:06.791Z,32.79
2023-04-13T11:06:38.543Z,32.56
2023-04-13T11:09:12.550Z,32.52
2023-04-13T11:11:43.322Z,32.65
2023-04-13T11:14:19.226Z,32.87
2023-04-13T11:16:49.201Z,32.80
2023-04-13T11:19:17.310Z,32.60
2023-04-13T11:21:46.202Z,33.04
2023-04-13T11:24:24.771Z,32.88
2023-04-13T11:26:52.685Z,33.09
2023-04-13T11:29:21.754Z,33.15
2023-04-13T11:31:49.729Z,33.10
2023-04-13T11:34:25.857Z,32.91
2023-04-13T11:37:01.615Z,33.11
2023-04-13T11:39:32.318Z,32.91
2023-04-13T11:42:06.063Z,32.81
2023-04-13T11:44:35.708Z,32.97
2023-04-13T11:47:03.807Z,33.12
2023-04-13T11:49:32.047Z,32.81
2023-04-13T11:52:00.206Z,33.94
2023-04-13T11:54:28.787Z,34.09
2023-04-13T11:56:58.200Z,34.42
2023-04-13T11:59:26.443Z,33.80
2023-04-13T12:02:02.211Z,33.51
2023-04-13T12:04:38.337Z,33.46
2023-04-13T12:07:11.556Z,33.51
2023-04-13T12:15:10.179Z,33.42
2023-04-13T12:17:49.613Z,33.70
2023-04-13T12:20:20.786Z,33.46
2023-04-13T12:22:57.529Z,33.85
2023-04-13T12:25:35.456Z,33.66
2023-04-13T12:28:06.086Z,33.49
2023-04-13T12:30:34.054Z,33.61
2023-04-13T12:33:02.138Z,33.68
2023-04-13T12:35:30.145Z,33.82
2023-04-13T12:37:58.385Z,33.80
2023-04-13T12:40:26.552Z,33.77
2023-04-13T12:42:54.518Z,33.62
2023-04-13T12:45:23.880Z,33.58
2023-04-13T12:47:52.023Z,33.71
2023-04-13T12:50:19.972Z,33.79
2023-04-13T12:52:47.854Z,33.54
2023-04-13T12:55:16.000Z,33.75
2023-04-13T12:57:44.025Z,33.52
2023-04-13T13:00:12.879Z,33.49
2023-04-13T13:02:42.401Z,33.44
2023-04-13T13:05:11.025Z,33.68
2023-04-13T13:07:38.989Z,33.48
2023-04-13T13:10:25.728Z,33.51
2023-04-13T13:12:56.819Z,33.42
2023-04-13T13:17:55.546Z,33.11
2023-04-13T13:20:26.016Z,33.47
2023-04-13T13:22:54.238Z,33.03
2023-04-13T13:25:22.789Z,32.87
2023-04-13T13:30:22.781Z,32.37
2023-04-13T13:32:50.907Z,32.42
2023-04-13T13:35:20.876Z,32.28
2023-04-13T13:37:48.852Z,32.74
2023-04-13T13:40:17.751Z,32.65
2023-04-13T13:42:51.858Z,32.62
2023-04-13T13:45:21.017Z,32.63
2023-04-13T13:47:52.456Z,32.74
2023-04-13T13:50:22.430Z,31.72
2023-04-13T13:53:02.564Z,31.67
2023-04-13T13:55:32.001Z,32.09
2023-04-13T14:01:51.189Z,31.76
2023-04-13T14:04:19.301Z,31.71
2023-04-13T14:06:49.815Z,31.84
2023-04-13T14:09:18.965Z,31.77
2023-04-13T14:11:46.911Z,31.93
2023-04-13T14:14:21.619Z,31.95
2023-04-13T14:16:50.094Z,31.92
2023-04-13T14:19:20.845Z,31.77
2023-04-13T14:21:50.540Z,32.06
2023-04-13T14:24:18.515Z,32.04
2023-04-13T14:26:46.538Z,31.88
2023-04-13T14:29:14.563Z,31.87
2023-04-13T14:31:42.642Z,32.01
2023-04-13T14:34:10.627Z,32.00
2023-04-13T14:36:39.122Z,32.10
2023-04-13T14:39:08.813Z,31.90
2023-04-13T14:41:37.008Z,31.94
2023-04-13T14:44:05.055Z,32.03
2023-04-13T14:46:33.187Z,32.15
2023-04-13T14:49:01.462Z,31.80
2023-04-13T14:51:31.905Z,32.09
2023-04-13T14:53:59.894Z,32.02
2023-04-13T14:56:30.033Z,31.90
2023-04-13T14:58:58.311Z,31.99
2023-04-13T15:01:26.684Z,32.05
2023-04-13T15:03:55.156Z,31.96
2023-04-13T15:06:25.371Z,32.08
2023-04-13T15:08:54.299Z,31.85
2023-04-13T15:11:22.365Z,32.18
2023-04-13T15:13:51.781Z,32.10
2023-04-13T15:16:19.788Z,32.02
2023-04-13T15:18:47.836Z,32.23
2023-04-13T15:21:16.120Z,31.74
2023-04-13T15:23:44.103Z,31.75
2023-04-13T15:26:17.506Z,31.66
2023-04-13T15:28:45.414Z,31.61
2023-04-13T15:31:14.802Z,31.54
2023-04-13T15:33:43.069Z,31.51
2023-04-13T15:36:13.993Z,31.62
2023-04-13T15:38:41.957Z,31.56
2023-04-13T15:41:11.183Z,31.66
2023-04-13T15:43:41.165Z,31.71
2023-04-13T15:46:09.483Z,31.89
2023-04-13T15:48:38.941Z,31.97
2023-04-13T15:51:07.045Z,31.82
2023-04-13T15:53:35.101Z,31.88
2023-04-13T15:56:03.251Z,32.09
2023-04-13T15:58:31.444Z,32.23
2023-04-13T16:01:03.638Z,32.00
2023-04-13T16:03:31.880Z,32.11
2023-04-13T16:06:01.522Z,32.28
2023-04-13T16:08:30.038Z,32.23
2023-04-13T16:10:58.015Z,32.05
2023-04-13T16:13:37.568Z,32.15
2023-04-13T16:16:15.031Z,32.25
2023-04-13T16:18:43.232Z,32.27
2023-04-13T16:21:13.320Z,32.11
2023-04-13T16:23:41.330Z,32.19
2023-04-13T16:26:09.295Z,32.16
2023-04-13T16:28:37.374Z,32.22
2023-04-13T16:31:05.747Z,32.07
2023-04-13T16:33:33.773Z,31.99
2023-04-13T16:36:01.779Z,32.20
2023-04-13T16:38:31.332Z,32.19
2023-04-13T16:40:59.330Z,32.22
2023-04-13T16:43:27.473Z,32.16
2023-04-13T16:45:55.766Z,32.17
2023-04-13T16:48:24.190Z,32.07
2023-04-13T16:50:59.164Z,32.05
2023-04-13T16:53:27.826Z,32.26
2023-04-13T16:55:57.877Z,32.22
2023-04-13T16:58:25.840Z,32.32
2023-04-13T17:00:54.004Z,31.95
2023-04-13T17:03:22.330Z,32.05
2023-04-13T17:05:50.838Z,32.21
2023-04-13T17:08:18.850Z,32.20
2023-04-13T17:10:47.503Z,32.30
2023-04-13T17:13:16.765Z,32.18
2023-04-13T17:15:45.053Z,32.07
2023-04-13T17:18:13.333Z,32.24
2023-04-13T17:20:41.361Z,32.10
2023-04-13T17:23:09.413Z,31.96
2023-04-13T17:25:41.543Z,32.33
2023-04-13T17:28:16.894Z,32.22
2023-04-13T17:30:44.911Z,32.33
2023-04-13T17:33:12.970Z,32.09
2023-04-13T17:35:40.990Z,31.96
2023-04-13T17:38:08.919Z,32.29
2023-04-13T17:40:36.914Z,31.93
2023-04-13T17:43:05.710Z,32.03
2023-04-13T17:45:35.101Z,32.06
2023-04-13T17:48:03.434Z,32.12
2023-04-13T17:50:32.535Z,32.27
2023-04-13T17:53:04.141Z,32.06
2023-04-13T17:55:33.351Z,32.43
2023-04-13T17:58:01.280Z,32.35
2023-04-13T18:00:29.394Z,32.39
2023-04-13T18:03:05.370Z,32.02
2023-04-13T18:05:33.808Z,32.43
2023-04-13T18:08:01.789Z,32.51
2023-04-13T18:10:29.839Z,32.04
2023-04-13T18:13:00.016Z,32.16
2023-04-13T18:15:28.169Z,32.09
2023-04-13T18:17:56.381Z,32.32
2023-04-13T18:20:26.384Z,32.37
2023-04-13T18:22:54.344Z,32.46
2023-04-13T18:25:22.266Z,32.03
2023-04-13T18:28:03.432Z,32.29
2023-04-13T18:30:31.371Z,32.41
2023-04-13T18:32:59.485Z,32.24
2023-04-13T18:35:28.853Z,32.04
2023-04-13T18:37:57.083Z,31.91
2023-04-13T18:40:25.243Z,32.28
2023-04-13T18:43:24.082Z,32.01
2023-04-13T18:45:52.018Z,32.37
2023-04-13T18:48:20.017Z,31.94
2023-04-13T18:50:49.492Z,32.13
2023-04-13T18:53:17.919Z,32.17
2023-04-13T18:55:49.276Z,32.02
2023-04-13T18:58:17.291Z,32.33
2023-04-13T19:00:45.142Z,31.97
2023-04-13T19:03:13.380Z,32.16
2023-04-13T19:05:41.582Z,32.17
2023-04-13T19:08:13.804Z,32.57
2023-04-13T19:10:42.665Z,32.12
2023-04-13T19:13:19.548Z,32.47
2023-04-13T19:15:47.545Z,32.46
2023-04-13T19:18:15.497Z,32.35
2023-04-13T19:20:43.437Z,32.34
2023-04-13T19:23:12.973Z,32.28
2023-04-13T19:25:41.114Z,32.51
2023-04-13T19:28:09.119Z,32.19
2023-04-13T19:30:37.096Z,32.56
2023-04-13T19:33:05.780Z,32.58
2023-04-13T19:35:34.061Z,32.50
2023-04-13T19:38:02.066Z,32.36
2023-04-13T19:40:31.616Z,32.19
2023-04-13T19:45:56.275Z,32.11
2023-04-13T19:48:24.397Z,32.28
2023-04-13T19:50:52.356Z,32.52
2023-04-13T19:53:20.301Z,32.27
2023-04-13T19:55:51.256Z,32.25
2023-04-13T19:58:25.567Z,32.34
2023-04-13T20:00:54.480Z,32.52
2023-04-13T20:03:22.737Z,32.51
2023-04-13T20:05:50.859Z,32.43
2023-04-13T20:08:18.868Z,32.40
2023-04-13T20:10:46.819Z,32.48
2023-04-13T20:13:16.334Z,32.61
2023-04-13T20:15:44.436Z,32.52
2023-04-13T20:18:12.510Z,32.50
2023-04-13T20:20:42.451Z,32.69
2023-04-13T20:23:10.628Z,32.58
2023-04-13T20:25:38.659Z,32.73
2023-04-13T20:28:06.757Z,32.68
2023-04-13T20:30:36.113Z,32.23
2023-04-13T20:33:06.370Z,32.40
2023-04-13T20:35:35.176Z,32.67
2023-04-13T20:38:04.882Z,32.66
2023-04-13T20:40:36.341Z,32.57
2023-04-13T20:43:06.364Z,32.43
2023-04-13T20:45:36.690Z,32.41
2023-04-13T20:50:35.889Z,32.38
2023-04-13T20:53:05.048Z,32.49
2023-04-13T20:55:33.375Z,32.13
2023-04-13T20:58:01.744Z,32.14
2023-04-13T21:00:29.756Z,32.52
2023-04-13T21:03:00.179Z,32.01
2023-04-13T21:05:28.328Z,32.18
2023-04-13T21:07:57.192Z,32.50
2023-04-13T21:10:25.591Z,32.03
2023-04-13T21:12:56.074Z,32.08
2023-04-13T21:15:24.183Z,32.43
2023-04-13T21:17:52.596Z,32.28
2023-04-13T21:20:22.407Z,32.06
2023-04-13T21:22:50.354Z,32.40
2023-04-13T21:25:18.548Z,32.29
2023-04-13T21:27:46.449Z,32.57
2023-04-13T21:30:14.871Z,32.07
2023-04-13T21:32:42.974Z,32.08
2023-04-13T21:35:11.733Z,32.10
2023-04-13T21:37:41.236Z,32.51
2023-04-13T21:40:09.777Z,32.34
2023-04-13T21:42:38.136Z,32.41
2023-04-13T21:45:06.780Z,32.21
2023-04-13T21:47:35.212Z,32.58
2023-04-13T21:50:03.208Z,32.17
2023-04-13T21:52:31.348Z,32.54
2023-04-13T21:55:01.206Z,32.78
2023-04-13T21:57:29.209Z,32.58
2023-04-13T21:59:57.406Z,32.70
2023-04-13T22:02:25.646Z,32.60
2023-04-13T22:04:53.893Z,32.56
2023-04-13T22:07:28.617Z,32.98
2023-04-13T22:10:09.852Z,32.84
2023-04-13T22:12:40.841Z,32.72
2023-04-13T22:15:12.707Z,32.73
2023-04-13T22:17:41.111Z,32.58
2023-04-13T22:20:10.110Z,32.68
2023-04-13T22:22:38.090Z,32.93
2023-04-13T22:25:06.919Z,32.69
2023-04-13T22:27:38.905Z,33.01
2023-04-13T22:30:08.294Z,33.03
2023-04-13T22:32:36.337Z,32.64
2023-04-13T22:35:04.424Z,32.83
2023-04-13T22:37:34.093Z,33.00
2023-04-13T22:40:02.430Z,32.63
2023-04-13T22:42:30.710Z,33.11
2023-04-13T22:45:00.203Z,32.84
2023-04-13T22:47:28.191Z,33.02
2023-04-13T22:49:56.237Z,33.09
2023-04-13T22:52:24.154Z,32.74
2023-04-13T22:54:52.108Z,33.15
2023-04-13T22:57:20.082Z,33.11
2023-04-13T22:59:48.265Z,33.04
2023-04-13T23:02:17.666Z,33.18
2023-04-13T23:04:46.100Z,33.12
2023-04-13T23:07:14.184Z,33.21
2023-04-13T23:09:42.264Z,32.83
2023-04-13T23:12:10.260Z,32.93
2023-04-13T23:14:38.214Z,33.02
2023-04-13T23:17:06.257Z,33.29
2023-04-13T23:19:35.727Z,33.10
2023-04-13T23:22:03.670Z,33.31
2023-04-13T23:24:31.598Z,32.99
2023-04-13T23:26:59.671Z,33.29
2023-04-13T23:29:27.646Z,33.11
2023-04-13T23:31:56.557Z,33.38
2023-04-13T23:34:24.606Z,33.32
2023-04-13T23:36:53.985Z,33.27
2023-04-13T23:39:23.160Z,33.01
2023-04-13T23:44:19.131Z,33.11
2023-04-13T23:46:47.167Z,33.14
2023-04-13T23:49:15.098Z,33.15
2023-04-13T23:51:43.660Z,32.90
2023-04-13T23:54:13.047Z,32.99
2023-04-13T23:56:41.312Z,33.14
2023-04-13T23:59:09.261Z,33.03
